sensor_id;sensor_type;location;lat;lon;timestamp;P1;durP1;ratioP1;P2;durP2;ratioP2
64210;SDS011;50528;48.514;14.394;2023-06-22T00:00:24;7.20;;;3.50;;
64210;SDS011;50528;48.514;14.394;2023-06-22T00:01:18;10.80;;;3.50;;
64210;SDS011;50528;48.514;14.394;2023-06-22T00:01:52;9.70;;;3.50;;
64210;SDS011;50528;48.514;14.394;2023-06-22T00:02:25;6.90;;;3.50;;
64210;SDS011;50528;48.514;14.394;2023-06-22T00:02:59;8.80;;;3.30;;
64210;SDS011;50528;48.514;14.394;2023-06-22T00:03:32;13.70;;;3.60;;
64210;SDS011;50528;48.514;14.394;2023-06-22T00:04:06;8.20;;;3.50;;
64210;SDS011;50528;48.514;14.394;2023-06-22T00:04:39;8.50;;;3.00;;
64210;SDS011;50528;48.514;14.394;2023-06-22T00:05:13;8.10;;;3.20;;
64210;SDS011;50528;48.514;14.394;2023-06-22T00:05:46;6.30;;;3.30;;
64210;SDS011;50528;48.514;14.394;2023-06-22T00:06:20;8.30;;;3.40;;
64210;SDS011;50528;48.514;14.394;2023-06-22T00:06:53;7.10;;;3.40;;
64210;SDS011;50528;48.514;14.394;2023-06-22T00:07:27;10.10;;;3.30;;
64210;SDS011;50528;48.514;14.394;2023-06-22T00:08:03;9.60;;;3.50;;
64210;SDS011;50528;48.514;14.394;2023-06-22T00:08:40;6.80;;;3.40;;
64210;SDS011;50528;48.514;14.394;2023-06-22T00:09:13;8.90;;;3.70;;
64210;SDS011;50528;48.514;14.394;2023-06-22T00:09:46;7.10;;;3.30;;
64210;SDS011;50528;48.514;14.394;2023-06-22T00:10:20;7.40;;;3.30;;
64210;SDS011;50528;48.514;14.394;2023-06-22T00:10:53;10.60;;;3.30;;
64210;SDS011;50528;48.514;14.394;2023-06-22T00:11:27;9.10;;;3.20;;
64210;SDS011;50528;48.514;14.394;2023-06-22T00:12:01;9.90;;;3.30;;
64210;SDS011;50528;48.514;14.394;2023-06-22T00:12:38;6.70;;;3.30;;
64210;SDS011;50528;48.514;14.394;2023-06-22T00:13:16;9.00;;;3.50;;
64210;SDS011;50528;48.514;14.394;2023-06-22T00:13:50;8.60;;;3.60;;
64210;SDS011;50528;48.514;14.394;2023-06-22T00:14:24;9.70;;;3.70;;
64210;SDS011;50528;48.514;14.394;2023-06-22T00:14:57;8.90;;;3.20;;
64210;SDS011;50528;48.514;14.394;2023-06-22T00:15:30;9.40;;;3.50;;
64210;SDS011;50528;48.514;14.394;2023-06-22T00:16:04;7.70;;;3.30;;
64210;SDS011;50528;48.514;14.394;2023-06-22T00:16:37;6.40;;;3.20;;
64210;SDS011;50528;48.514;14.394;2023-06-22T00:17:11;7.60;;;3.20;;
64210;SDS011;50528;48.514;14.394;2023-06-22T00:17:45;8.50;;;3.50;;
64210;SDS011;50528;48.514;14.394;2023-06-22T00:18:18;8.00;;;3.30;;
64210;SDS011;50528;48.514;14.394;2023-06-22T00:18:53;6.30;;;3.10;;
64210;SDS011;50528;48.514;14.394;2023-06-22T00:19:26;7.30;;;3.20;;
64210;SDS011;50528;48.514;14.394;2023-06-22T00:19:59;11.20;;;3.40;;
64210;SDS011;50528;48.514;14.394;2023-06-22T00:20:33;8.00;;;3.50;;
64210;SDS011;50528;48.514;14.394;2023-06-22T00:21:13;8.30;;;3.50;;
64210;SDS011;50528;48.514;14.394;2023-06-22T00:21:46;8.00;;;3.70;;
64210;SDS011;50528;48.514;14.394;2023-06-22T00:22:19;7.40;;;3.40;;
64210;SDS011;50528;48.514;14.394;2023-06-22T00:23:03;6.40;;;3.60;;
64210;SDS011;50528;48.514;14.394;2023-06-22T00:23:43;7.70;;;3.10;;
64210;SDS011;50528;48.514;14.394;2023-06-22T00:24:17;8.80;;;3.30;;
64210;SDS011;50528;48.514;14.394;2023-06-22T00:24:50;7.70;;;3.10;;
64210;SDS011;50528;48.514;14.394;2023-06-22T00:25:23;6.80;;;3.30;;
64210;SDS011;50528;48.514;14.394;2023-06-22T00:25:57;7.30;;;3.50;;
64210;SDS011;50528;48.514;14.394;2023-06-22T00:26:30;12.80;;;3.40;;
64210;SDS011;50528;48.514;14.394;2023-06-22T00:27:05;7.60;;;3.20;;
64210;SDS011;50528;48.514;14.394;2023-06-22T00:27:38;8.50;;;3.70;;
64210;SDS011;50528;48.514;14.394;2023-06-22T00:28:12;9.30;;;3.40;;
64210;SDS011;50528;48.514;14.394;2023-06-22T00:28:45;7.50;;;3.30;;
64210;SDS011;50528;48.514;14.394;2023-06-22T00:29:18;9.50;;;3.40;;
64210;SDS011;50528;48.514;14.394;2023-06-22T00:29:57;6.80;;;3.20;;
64210;SDS011;50528;48.514;14.394;2023-06-22T00:30:31;9.50;;;3.50;;
64210;SDS011;50528;48.514;14.394;2023-06-22T00:31:05;7.40;;;3.20;;
64210;SDS011;50528;48.514;14.394;2023-06-22T00:31:38;8.20;;;3.70;;
64210;SDS011;50528;48.514;14.394;2023-06-22T00:32:12;7.20;;;3.40;;
64210;SDS011;50528;48.514;14.394;2023-06-22T00:32:45;8.40;;;3.40;;
64210;SDS011;50528;48.514;14.394;2023-06-22T00:33:19;8.40;;;3.20;;
64210;SDS011;50528;48.514;14.394;2023-06-22T00:33:53;8.80;;;3.20;;
64210;SDS011;50528;48.514;14.394;2023-06-22T00:34:26;9.20;;;3.40;;
64210;SDS011;50528;48.514;14.394;2023-06-22T00:35:01;8.10;;;3.20;;
64210;SDS011;50528;48.514;14.394;2023-06-22T00:35:35;9.30;;;3.60;;
64210;SDS011;50528;48.514;14.394;2023-06-22T00:36:08;8.50;;;3.30;;
64210;SDS011;50528;48.514;14.394;2023-06-22T00:36:46;7.20;;;3.60;;
64210;SDS011;50528;48.514;14.394;2023-06-22T00:37:19;8.90;;;3.20;;
64210;SDS011;50528;48.514;14.394;2023-06-22T00:37:52;6.80;;;3.10;;
64210;SDS011;50528;48.514;14.394;2023-06-22T00:38:34;9.10;;;3.70;;
64210;SDS011;50528;48.514;14.394;2023-06-22T00:39:07;8.20;;;3.50;;
64210;SDS011;50528;48.514;14.394;2023-06-22T00:39:42;8.60;;;3.40;;
64210;SDS011;50528;48.514;14.394;2023-06-22T00:40:16;10.10;;;3.30;;
64210;SDS011;50528;48.514;14.394;2023-06-22T00:40:54;10.60;;;3.70;;
64210;SDS011;50528;48.514;14.394;2023-06-22T00:41:27;9.00;;;3.40;;
64210;SDS011;50528;48.514;14.394;2023-06-22T00:42:01;9.60;;;3.50;;
64210;SDS011;50528;48.514;14.394;2023-06-22T00:42:35;7.10;;;3.40;;
64210;SDS011;50528;48.514;14.394;2023-06-22T00:43:08;7.10;;;3.40;;
64210;SDS011;50528;48.514;14.394;2023-06-22T00:43:42;7.10;;;3.50;;
64210;SDS011;50528;48.514;14.394;2023-06-22T00:44:15;8.60;;;3.40;;
64210;SDS011;50528;48.514;14.394;2023-06-22T00:44:48;7.70;;;3.40;;
64210;SDS011;50528;48.514;14.394;2023-06-22T00:45:22;7.30;;;3.50;;
64210;SDS011;50528;48.514;14.394;2023-06-22T00:45:56;9.00;;;3.50;;
64210;SDS011;50528;48.514;14.394;2023-06-22T00:46:30;8.30;;;3.40;;
64210;SDS011;50528;48.514;14.394;2023-06-22T00:47:05;7.70;;;3.70;;
64210;SDS011;50528;48.514;14.394;2023-06-22T00:47:39;8.10;;;3.40;;
64210;SDS011;50528;48.514;14.394;2023-06-22T00:48:13;8.80;;;3.50;;
64210;SDS011;50528;48.514;14.394;2023-06-22T00:48:47;7.90;;;3.80;;
64210;SDS011;50528;48.514;14.394;2023-06-22T00:49:21;7.10;;;3.50;;
64210;SDS011;50528;48.514;14.394;2023-06-22T00:49:54;7.70;;;3.50;;
64210;SDS011;50528;48.514;14.394;2023-06-22T00:50:29;6.50;;;3.60;;
64210;SDS011;50528;48.514;14.394;2023-06-22T00:51:06;8.80;;;3.40;;
64210;SDS011;50528;48.514;14.394;2023-06-22T00:51:40;9.10;;;3.60;;
64210;SDS011;50528;48.514;14.394;2023-06-22T00:52:21;8.30;;;3.50;;
64210;SDS011;50528;48.514;14.394;2023-06-22T00:53:03;10.40;;;3.70;;
64210;SDS011;50528;48.514;14.394;2023-06-22T00:53:44;8.00;;;3.50;;
64210;SDS011;50528;48.514;14.394;2023-06-22T00:54:19;7.40;;;3.50;;
64210;SDS011;50528;48.514;14.394;2023-06-22T00:54:58;7.70;;;3.40;;
64210;SDS011;50528;48.514;14.394;2023-06-22T00:55:35;7.60;;;3.10;;
64210;SDS011;50528;48.514;14.394;2023-06-22T00:56:10;8.90;;;3.50;;
64210;SDS011;50528;48.514;14.394;2023-06-22T00:56:45;8.10;;;3.40;;
64210;SDS011;50528;48.514;14.394;2023-06-22T00:57:19;7.60;;;3.30;;
64210;SDS011;50528;48.514;14.394;2023-06-22T00:57:53;7.20;;;3.30;;
64210;SDS011;50528;48.514;14.394;2023-06-22T00:58:29;6.70;;;3.60;;
64210;SDS011;50528;48.514;14.394;2023-06-22T00:59:03;8.50;;;3.10;;
64210;SDS011;50528;48.514;14.394;2023-06-22T00:59:36;6.70;;;3.40;;
64210;SDS011;50528;48.514;14.394;2023-06-22T01:00:10;8.20;;;3.40;;
64210;SDS011;50528;48.514;14.394;2023-06-22T01:00:44;6.70;;;3.30;;
64210;SDS011;50528;48.514;14.394;2023-06-22T01:01:18;6.70;;;3.20;;
64210;SDS011;50528;48.514;14.394;2023-06-22T01:01:56;7.90;;;3.40;;
64210;SDS011;50528;48.514;14.394;2023-06-22T01:02:31;9.40;;;3.50;;
64210;SDS011;50528;48.514;14.394;2023-06-22T01:03:05;7.80;;;3.30;;
64210;SDS011;50528;48.514;14.394;2023-06-22T01:03:42;8.20;;;3.60;;
64210;SDS011;50528;48.514;14.394;2023-06-22T01:04:16;10.30;;;3.50;;
64210;SDS011;50528;48.514;14.394;2023-06-22T01:04:49;5.70;;;3.40;;
64210;SDS011;50528;48.514;14.394;2023-06-22T01:05:22;9.20;;;3.80;;
64210;SDS011;50528;48.514;14.394;2023-06-22T01:06:05;8.30;;;3.50;;
64210;SDS011;50528;48.514;14.394;2023-06-22T01:06:49;8.90;;;3.90;;
64210;SDS011;50528;48.514;14.394;2023-06-22T01:07:35;6.90;;;3.50;;
64210;SDS011;50528;48.514;14.394;2023-06-22T01:08:16;8.20;;;3.30;;
64210;SDS011;50528;48.514;14.394;2023-06-22T01:09:02;7.80;;;3.40;;
64210;SDS011;50528;48.514;14.394;2023-06-22T01:11:43;8.60;;;3.50;;
64210;SDS011;50528;48.514;14.394;2023-06-22T01:12:30;10.80;;;3.70;;
64210;SDS011;50528;48.514;14.394;2023-06-22T01:13:29;8.10;;;3.50;;
64210;SDS011;50528;48.514;14.394;2023-06-22T01:15:04;6.90;;;3.60;;
64210;SDS011;50528;48.514;14.394;2023-06-22T01:16:40;7.00;;;3.40;;
64210;SDS011;50528;48.514;14.394;2023-06-22T01:17:15;7.00;;;3.20;;
64210;SDS011;50528;48.514;14.394;2023-06-22T01:17:50;10.40;;;3.60;;
64210;SDS011;50528;48.514;14.394;2023-06-22T01:18:26;10.30;;;3.80;;
64210;SDS011;50528;48.514;14.394;2023-06-22T01:19:09;7.70;;;3.50;;
64210;SDS011;50528;48.514;14.394;2023-06-22T01:20:09;9.80;;;3.60;;
64210;SDS011;50528;48.514;14.394;2023-06-22T01:20:44;6.20;;;3.60;;
64210;SDS011;50528;48.514;14.394;2023-06-22T01:21:19;8.20;;;3.70;;
64210;SDS011;50528;48.514;14.394;2023-06-22T01:21:56;9.50;;;3.60;;
64210;SDS011;50528;48.514;14.394;2023-06-22T01:22:32;8.20;;;3.70;;
64210;SDS011;50528;48.514;14.394;2023-06-22T01:24:27;7.70;;;3.70;;
64210;SDS011;50528;48.514;14.394;2023-06-22T01:25:12;7.40;;;3.50;;
64210;SDS011;50528;48.514;14.394;2023-06-22T01:28:54;6.40;;;3.60;;
64210;SDS011;50528;48.514;14.394;2023-06-22T01:29:33;7.10;;;3.40;;
64210;SDS011;50528;48.514;14.394;2023-06-22T01:30:10;7.80;;;3.40;;
64210;SDS011;50528;48.514;14.394;2023-06-22T01:30:45;6.70;;;3.30;;
64210;SDS011;50528;48.514;14.394;2023-06-22T01:31:20;8.10;;;3.30;;
64210;SDS011;50528;48.514;14.394;2023-06-22T01:31:56;6.80;;;3.40;;
64210;SDS011;50528;48.514;14.394;2023-06-22T01:32:34;7.80;;;3.30;;
64210;SDS011;50528;48.514;14.394;2023-06-22T01:33:12;7.60;;;3.40;;
64210;SDS011;50528;48.514;14.394;2023-06-22T01:33:56;5.20;;;2.90;;
64210;SDS011;50528;48.514;14.394;2023-06-22T01:34:32;7.50;;;3.40;;
64210;SDS011;50528;48.514;14.394;2023-06-22T01:35:08;7.70;;;3.30;;
64210;SDS011;50528;48.514;14.394;2023-06-22T01:35:43;8.40;;;3.40;;
64210;SDS011;50528;48.514;14.394;2023-06-22T01:36:17;6.70;;;3.20;;
64210;SDS011;50528;48.514;14.394;2023-06-22T01:36:52;6.60;;;3.30;;
64210;SDS011;50528;48.514;14.394;2023-06-22T01:37:27;7.70;;;3.20;;
64210;SDS011;50528;48.514;14.394;2023-06-22T01:38:01;9.30;;;3.50;;
64210;SDS011;50528;48.514;14.394;2023-06-22T01:38:35;8.10;;;3.40;;
64210;SDS011;50528;48.514;14.394;2023-06-22T01:39:11;8.20;;;3.50;;
64210;SDS011;50528;48.514;14.394;2023-06-22T01:39:45;9.80;;;3.50;;
64210;SDS011;50528;48.514;14.394;2023-06-22T01:40:20;8.70;;;3.50;;
64210;SDS011;50528;48.514;14.394;2023-06-22T01:40:57;8.80;;;3.20;;
64210;SDS011;50528;48.514;14.394;2023-06-22T01:41:34;7.70;;;3.20;;
64210;SDS011;50528;48.514;14.394;2023-06-22T01:42:10;7.30;;;3.30;;
64210;SDS011;50528;48.514;14.394;2023-06-22T01:42:45;9.50;;;3.50;;
64210;SDS011;50528;48.514;14.394;2023-06-22T01:43:20;6.20;;;3.00;;
64210;SDS011;50528;48.514;14.394;2023-06-22T01:43:56;7.60;;;3.20;;
64210;SDS011;50528;48.514;14.394;2023-06-22T01:44:29;7.60;;;3.80;;
64210;SDS011;50528;48.514;14.394;2023-06-22T01:45:03;7.60;;;3.60;;
64210;SDS011;50528;48.514;14.394;2023-06-22T01:45:38;8.40;;;3.50;;
64210;SDS011;50528;48.514;14.394;2023-06-22T01:46:11;9.40;;;3.90;;
64210;SDS011;50528;48.514;14.394;2023-06-22T01:46:45;8.90;;;3.70;;
64210;SDS011;50528;48.514;14.394;2023-06-22T01:47:20;10.40;;;3.90;;
64210;SDS011;50528;48.514;14.394;2023-06-22T01:47:54;10.40;;;4.00;;
64210;SDS011;50528;48.514;14.394;2023-06-22T01:48:29;9.30;;;3.70;;
64210;SDS011;50528;48.514;14.394;2023-06-22T01:51:16;6.70;;;3.40;;
64210;SDS011;50528;48.514;14.394;2023-06-22T01:51:49;7.90;;;3.60;;
64210;SDS011;50528;48.514;14.394;2023-06-22T01:52:23;8.00;;;3.40;;
64210;SDS011;50528;48.514;14.394;2023-06-22T01:52:57;7.90;;;3.50;;
64210;SDS011;50528;48.514;14.394;2023-06-22T01:53:31;9.60;;;3.50;;
64210;SDS011;50528;48.514;14.394;2023-06-22T01:54:06;8.40;;;3.40;;
64210;SDS011;50528;48.514;14.394;2023-06-22T01:54:41;7.70;;;3.60;;
64210;SDS011;50528;48.514;14.394;2023-06-22T01:55:14;7.80;;;3.20;;
64210;SDS011;50528;48.514;14.394;2023-06-22T01:55:47;7.70;;;3.50;;
64210;SDS011;50528;48.514;14.394;2023-06-22T01:56:21;7.10;;;3.60;;
64210;SDS011;50528;48.514;14.394;2023-06-22T01:56:54;8.20;;;3.50;;
64210;SDS011;50528;48.514;14.394;2023-06-22T01:57:28;6.50;;;3.60;;
64210;SDS011;50528;48.514;14.394;2023-06-22T01:58:01;7.20;;;3.40;;
64210;SDS011;50528;48.514;14.394;2023-06-22T01:58:36;5.70;;;3.40;;
64210;SDS011;50528;48.514;14.394;2023-06-22T01:59:22;7.30;;;3.30;;
64210;SDS011;50528;48.514;14.394;2023-06-22T02:00:11;9.00;;;3.60;;
64210;SDS011;50528;48.514;14.394;2023-06-22T02:01:11;8.70;;;3.20;;
64210;SDS011;50528;48.514;14.394;2023-06-22T02:01:54;8.10;;;3.60;;
64210;SDS011;50528;48.514;14.394;2023-06-22T02:02:39;10.40;;;3.00;;
64210;SDS011;50528;48.514;14.394;2023-06-22T02:03:22;8.90;;;3.30;;
64210;SDS011;50528;48.514;14.394;2023-06-22T02:04:03;6.80;;;3.50;;
64210;SDS011;50528;48.514;14.394;2023-06-22T02:05:06;7.60;;;3.20;;
64210;SDS011;50528;48.514;14.394;2023-06-22T02:05:47;6.90;;;3.30;;
64210;SDS011;50528;48.514;14.394;2023-06-22T02:06:27;6.50;;;3.40;;
64210;SDS011;50528;48.514;14.394;2023-06-22T02:07:47;8.40;;;3.40;;
64210;SDS011;50528;48.514;14.394;2023-06-22T02:08:28;7.20;;;3.50;;
64210;SDS011;50528;48.514;14.394;2023-06-22T02:09:08;6.00;;;3.40;;
64210;SDS011;50528;48.514;14.394;2023-06-22T02:09:45;9.10;;;3.30;;
64210;SDS011;50528;48.514;14.394;2023-06-22T02:10:19;11.20;;;3.70;;
64210;SDS011;50528;48.514;14.394;2023-06-22T02:10:55;8.00;;;3.80;;
64210;SDS011;50528;48.514;14.394;2023-06-22T02:11:30;8.00;;;3.40;;
64210;SDS011;50528;48.514;14.394;2023-06-22T02:12:05;7.20;;;3.30;;
64210;SDS011;50528;48.514;14.394;2023-06-22T02:12:40;6.40;;;3.50;;
64210;SDS011;50528;48.514;14.394;2023-06-22T02:13:16;10.50;;;3.50;;
64210;SDS011;50528;48.514;14.394;2023-06-22T02:13:50;7.40;;;3.50;;
64210;SDS011;50528;48.514;14.394;2023-06-22T02:14:24;7.60;;;3.60;;
64210;SDS011;50528;48.514;14.394;2023-06-22T02:14:59;8.10;;;3.40;;
64210;SDS011;50528;48.514;14.394;2023-06-22T02:15:34;7.70;;;3.40;;
64210;SDS011;50528;48.514;14.394;2023-06-22T02:16:09;8.10;;;3.40;;
64210;SDS011;50528;48.514;14.394;2023-06-22T02:16:47;7.60;;;3.20;;
64210;SDS011;50528;48.514;14.394;2023-06-22T02:17:21;6.70;;;3.60;;
64210;SDS011;50528;48.514;14.394;2023-06-22T02:17:56;7.50;;;3.70;;
64210;SDS011;50528;48.514;14.394;2023-06-22T02:18:29;7.60;;;3.60;;
64210;SDS011;50528;48.514;14.394;2023-06-22T02:19:03;9.20;;;3.50;;
64210;SDS011;50528;48.514;14.394;2023-06-22T02:19:41;6.10;;;3.50;;
64210;SDS011;50528;48.514;14.394;2023-06-22T02:20:15;8.80;;;3.80;;
64210;SDS011;50528;48.514;14.394;2023-06-22T02:20:48;8.40;;;3.50;;
64210;SDS011;50528;48.514;14.394;2023-06-22T02:21:22;12.70;;;3.80;;
64210;SDS011;50528;48.514;14.394;2023-06-22T02:21:55;8.90;;;3.60;;
64210;SDS011;50528;48.514;14.394;2023-06-22T02:22:28;7.10;;;3.40;;
64210;SDS011;50528;48.514;14.394;2023-06-22T02:23:01;7.40;;;3.90;;
64210;SDS011;50528;48.514;14.394;2023-06-22T02:23:35;8.10;;;3.60;;
64210;SDS011;50528;48.514;14.394;2023-06-22T02:24:08;9.70;;;3.90;;
64210;SDS011;50528;48.514;14.394;2023-06-22T02:24:41;9.60;;;3.60;;
64210;SDS011;50528;48.514;14.394;2023-06-22T02:25:15;9.60;;;3.50;;
64210;SDS011;50528;48.514;14.394;2023-06-22T02:25:49;7.20;;;3.50;;
64210;SDS011;50528;48.514;14.394;2023-06-22T02:26:23;8.60;;;3.60;;
64210;SDS011;50528;48.514;14.394;2023-06-22T02:27:01;8.40;;;3.90;;
64210;SDS011;50528;48.514;14.394;2023-06-22T02:27:37;8.70;;;3.80;;
64210;SDS011;50528;48.514;14.394;2023-06-22T02:28:14;9.40;;;3.90;;
64210;SDS011;50528;48.514;14.394;2023-06-22T02:28:47;9.10;;;4.00;;
64210;SDS011;50528;48.514;14.394;2023-06-22T02:29:22;9.40;;;3.80;;
64210;SDS011;50528;48.514;14.394;2023-06-22T02:29:56;9.40;;;3.80;;
64210;SDS011;50528;48.514;14.394;2023-06-22T02:30:30;11.70;;;3.70;;
64210;SDS011;50528;48.514;14.394;2023-06-22T02:31:04;6.50;;;3.60;;
64210;SDS011;50528;48.514;14.394;2023-06-22T02:31:38;7.80;;;3.90;;
64210;SDS011;50528;48.514;14.394;2023-06-22T02:32:12;8.90;;;3.70;;
64210;SDS011;50528;48.514;14.394;2023-06-22T02:32:45;9.80;;;3.80;;
64210;SDS011;50528;48.514;14.394;2023-06-22T02:33:21;7.10;;;3.60;;
64210;SDS011;50528;48.514;14.394;2023-06-22T02:33:54;9.30;;;3.90;;
64210;SDS011;50528;48.514;14.394;2023-06-22T02:34:27;6.80;;;3.80;;
64210;SDS011;50528;48.514;14.394;2023-06-22T02:35:01;9.00;;;3.90;;
64210;SDS011;50528;48.514;14.394;2023-06-22T02:35:37;8.20;;;4.10;;
64210;SDS011;50528;48.514;14.394;2023-06-22T02:36:10;7.80;;;3.90;;
64210;SDS011;50528;48.514;14.394;2023-06-22T02:36:46;7.10;;;3.90;;
64210;SDS011;50528;48.514;14.394;2023-06-22T02:37:24;8.90;;;4.00;;
64210;SDS011;50528;48.514;14.394;2023-06-22T02:37:58;8.60;;;3.90;;
64210;SDS011;50528;48.514;14.394;2023-06-22T02:38:33;7.80;;;3.80;;
64210;SDS011;50528;48.514;14.394;2023-06-22T02:39:07;12.70;;;4.40;;
64210;SDS011;50528;48.514;14.394;2023-06-22T02:39:42;8.10;;;3.80;;
64210;SDS011;50528;48.514;14.394;2023-06-22T02:40:15;7.30;;;3.90;;
64210;SDS011;50528;48.514;14.394;2023-06-22T02:40:49;10.10;;;4.00;;
64210;SDS011;50528;48.514;14.394;2023-06-22T02:41:23;9.90;;;4.00;;
64210;SDS011;50528;48.514;14.394;2023-06-22T02:41:56;12.20;;;4.10;;
64210;SDS011;50528;48.514;14.394;2023-06-22T02:42:29;6.40;;;4.00;;
64210;SDS011;50528;48.514;14.394;2023-06-22T02:43:02;7.90;;;3.90;;
64210;SDS011;50528;48.514;14.394;2023-06-22T02:43:36;7.70;;;3.60;;
64210;SDS011;50528;48.514;14.394;2023-06-22T02:44:09;8.40;;;3.80;;
64210;SDS011;50528;48.514;14.394;2023-06-22T02:44:42;8.30;;;3.90;;
64210;SDS011;50528;48.514;14.394;2023-06-22T02:45:18;6.80;;;3.60;;
64210;SDS011;50528;48.514;14.394;2023-06-22T02:45:51;10.50;;;4.20;;
64210;SDS011;50528;48.514;14.394;2023-06-22T02:46:25;7.60;;;3.90;;
64210;SDS011;50528;48.514;14.394;2023-06-22T02:46:58;7.40;;;3.80;;
64210;SDS011;50528;48.514;14.394;2023-06-22T02:47:32;11.70;;;4.40;;
64210;SDS011;50528;48.514;14.394;2023-06-22T02:48:05;10.80;;;4.30;;
64210;SDS011;50528;48.514;14.394;2023-06-22T02:48:39;9.00;;;4.20;;
64210;SDS011;50528;48.514;14.394;2023-06-22T02:49:13;7.60;;;4.50;;
64210;SDS011;50528;48.514;14.394;2023-06-22T02:49:46;10.00;;;4.10;;
64210;SDS011;50528;48.514;14.394;2023-06-22T02:50:20;10.20;;;4.30;;
64210;SDS011;50528;48.514;14.394;2023-06-22T02:50:54;8.80;;;4.20;;
64210;SDS011;50528;48.514;14.394;2023-06-22T02:51:27;11.30;;;4.60;;
64210;SDS011;50528;48.514;14.394;2023-06-22T02:52:01;8.70;;;4.80;;
64210;SDS011;50528;48.514;14.394;2023-06-22T02:52:34;10.30;;;4.20;;
64210;SDS011;50528;48.514;14.394;2023-06-22T02:53:08;7.60;;;4.40;;
64210;SDS011;50528;48.514;14.394;2023-06-22T02:53:43;7.60;;;4.40;;
64210;SDS011;50528;48.514;14.394;2023-06-22T02:54:20;8.10;;;4.30;;
64210;SDS011;50528;48.514;14.394;2023-06-22T02:54:55;8.50;;;4.80;;
64210;SDS011;50528;48.514;14.394;2023-06-22T02:55:29;9.50;;;4.80;;
64210;SDS011;50528;48.514;14.394;2023-06-22T02:56:03;7.10;;;4.10;;
64210;SDS011;50528;48.514;14.394;2023-06-22T02:56:39;11.00;;;4.70;;
64210;SDS011;50528;48.514;14.394;2023-06-22T02:57:13;10.90;;;5.00;;
64210;SDS011;50528;48.514;14.394;2023-06-22T02:57:47;8.30;;;4.80;;
64210;SDS011;50528;48.514;14.394;2023-06-22T02:58:21;10.60;;;4.60;;
64210;SDS011;50528;48.514;14.394;2023-06-22T02:58:54;11.60;;;4.90;;
64210;SDS011;50528;48.514;14.394;2023-06-22T02:59:27;8.00;;;4.60;;
64210;SDS011;50528;48.514;14.394;2023-06-22T03:00:05;8.60;;;4.50;;
64210;SDS011;50528;48.514;14.394;2023-06-22T03:00:50;10.30;;;4.50;;
64210;SDS011;50528;48.514;14.394;2023-06-22T03:01:26;8.00;;;4.10;;
64210;SDS011;50528;48.514;14.394;2023-06-22T03:02:01;8.20;;;4.10;;
64210;SDS011;50528;48.514;14.394;2023-06-22T03:02:37;7.70;;;4.10;;
64210;SDS011;50528;48.514;14.394;2023-06-22T03:03:10;10.20;;;4.10;;
64210;SDS011;50528;48.514;14.394;2023-06-22T03:03:44;9.40;;;4.50;;
64210;SDS011;50528;48.514;14.394;2023-06-22T03:04:17;10.70;;;4.20;;
64210;SDS011;50528;48.514;14.394;2023-06-22T03:04:51;10.20;;;4.60;;
64210;SDS011;50528;48.514;14.394;2023-06-22T03:05:26;8.60;;;4.30;;
64210;SDS011;50528;48.514;14.394;2023-06-22T03:06:00;9.90;;;4.40;;
64210;SDS011;50528;48.514;14.394;2023-06-22T03:06:36;9.30;;;4.20;;
64210;SDS011;50528;48.514;14.394;2023-06-22T03:07:10;9.70;;;4.30;;
64210;SDS011;50528;48.514;14.394;2023-06-22T03:07:44;11.60;;;4.90;;
64210;SDS011;50528;48.514;14.394;2023-06-22T03:08:18;9.40;;;4.70;;
64210;SDS011;50528;48.514;14.394;2023-06-22T03:08:51;8.20;;;4.50;;
64210;SDS011;50528;48.514;14.394;2023-06-22T03:09:25;10.40;;;4.30;;
64210;SDS011;50528;48.514;14.394;2023-06-22T03:09:58;8.40;;;4.50;;
64210;SDS011;50528;48.514;14.394;2023-06-22T03:10:31;9.90;;;4.70;;
64210;SDS011;50528;48.514;14.394;2023-06-22T03:11:05;10.80;;;4.80;;
64210;SDS011;50528;48.514;14.394;2023-06-22T03:11:38;9.50;;;4.90;;
64210;SDS011;50528;48.514;14.394;2023-06-22T03:12:12;8.60;;;4.90;;
64210;SDS011;50528;48.514;14.394;2023-06-22T03:12:51;10.80;;;4.40;;
64210;SDS011;50528;48.514;14.394;2023-06-22T03:13:26;11.80;;;4.50;;
64210;SDS011;50528;48.514;14.394;2023-06-22T03:14:00;7.20;;;4.30;;
64210;SDS011;50528;48.514;14.394;2023-06-22T03:14:34;8.20;;;4.40;;
64210;SDS011;50528;48.514;14.394;2023-06-22T03:15:09;9.30;;;4.70;;
64210;SDS011;50528;48.514;14.394;2023-06-22T03:15:47;7.40;;;4.70;;
64210;SDS011;50528;48.514;14.394;2023-06-22T03:16:20;11.80;;;4.60;;
64210;SDS011;50528;48.514;14.394;2023-06-22T03:16:54;7.90;;;4.70;;
64210;SDS011;50528;48.514;14.394;2023-06-22T03:17:27;8.60;;;4.70;;
64210;SDS011;50528;48.514;14.394;2023-06-22T03:18:01;9.30;;;4.40;;
64210;SDS011;50528;48.514;14.394;2023-06-22T03:18:35;11.00;;;4.70;;
64210;SDS011;50528;48.514;14.394;2023-06-22T03:19:08;9.70;;;5.00;;
64210;SDS011;50528;48.514;14.394;2023-06-22T03:19:41;9.20;;;5.10;;
64210;SDS011;50528;48.514;14.394;2023-06-22T03:20:14;10.10;;;4.90;;
64210;SDS011;50528;48.514;14.394;2023-06-22T03:20:48;8.80;;;4.90;;
64210;SDS011;50528;48.514;14.394;2023-06-22T03:21:21;9.10;;;5.30;;
64210;SDS011;50528;48.514;14.394;2023-06-22T03:21:58;8.40;;;4.60;;
64210;SDS011;50528;48.514;14.394;2023-06-22T03:22:33;9.90;;;5.10;;
64210;SDS011;50528;48.514;14.394;2023-06-22T03:23:06;10.80;;;5.00;;
64210;SDS011;50528;48.514;14.394;2023-06-22T03:23:39;8.50;;;4.60;;
64210;SDS011;50528;48.514;14.394;2023-06-22T03:24:13;9.50;;;4.70;;
64210;SDS011;50528;48.514;14.394;2023-06-22T03:24:46;9.70;;;5.10;;
64210;SDS011;50528;48.514;14.394;2023-06-22T03:25:20;9.50;;;4.60;;
64210;SDS011;50528;48.514;14.394;2023-06-22T03:25:54;8.40;;;4.80;;
64210;SDS011;50528;48.514;14.394;2023-06-22T03:26:28;8.70;;;4.80;;
64210;SDS011;50528;48.514;14.394;2023-06-22T03:27:03;9.80;;;4.70;;
64210;SDS011;50528;48.514;14.394;2023-06-22T03:27:39;7.80;;;4.80;;
64210;SDS011;50528;48.514;14.394;2023-06-22T03:28:19;9.80;;;4.80;;
64210;SDS011;50528;48.514;14.394;2023-06-22T03:28:53;9.50;;;4.80;;
64210;SDS011;50528;48.514;14.394;2023-06-22T03:29:26;9.20;;;4.90;;
64210;SDS011;50528;48.514;14.394;2023-06-22T03:30:03;11.60;;;4.80;;
64210;SDS011;50528;48.514;14.394;2023-06-22T03:30:37;8.10;;;4.40;;
64210;SDS011;50528;48.514;14.394;2023-06-22T03:31:10;8.30;;;4.50;;
64210;SDS011;50528;48.514;14.394;2023-06-22T03:31:45;10.70;;;4.80;;
64210;SDS011;50528;48.514;14.394;2023-06-22T03:32:19;8.80;;;4.60;;
64210;SDS011;50528;48.514;14.394;2023-06-22T03:32:52;8.80;;;4.60;;
64210;SDS011;50528;48.514;14.394;2023-06-22T03:33:26;8.30;;;4.60;;
64210;SDS011;50528;48.514;14.394;2023-06-22T03:34:03;7.90;;;5.00;;
64210;SDS011;50528;48.514;14.394;2023-06-22T03:34:36;7.90;;;4.50;;
64210;SDS011;50528;48.514;14.394;2023-06-22T03:35:10;8.10;;;4.50;;
64210;SDS011;50528;48.514;14.394;2023-06-22T03:35:46;9.00;;;4.90;;
64210;SDS011;50528;48.514;14.394;2023-06-22T03:36:19;10.00;;;4.60;;
64210;SDS011;50528;48.514;14.394;2023-06-22T03:36:52;13.40;;;4.90;;
64210;SDS011;50528;48.514;14.394;2023-06-22T03:37:26;9.50;;;4.60;;
64210;SDS011;50528;48.514;14.394;2023-06-22T03:38:00;6.90;;;4.80;;
64210;SDS011;50528;48.514;14.394;2023-06-22T03:38:36;8.60;;;4.60;;
64210;SDS011;50528;48.514;14.394;2023-06-22T03:39:09;8.20;;;4.60;;
64210;SDS011;50528;48.514;14.394;2023-06-22T03:39:43;7.90;;;4.60;;
64210;SDS011;50528;48.514;14.394;2023-06-22T03:40:16;10.60;;;4.70;;
64210;SDS011;50528;48.514;14.394;2023-06-22T03:40:50;8.30;;;4.50;;
64210;SDS011;50528;48.514;14.394;2023-06-22T03:41:24;9.70;;;4.40;;